CST,Max TemperatureF,Mean TemperatureF,Min TemperatureF,Max Dew PointF,MeanDew PointF,Min DewpointF,Max Humidity, Mean Humidity, Min Humidity, Max Sea Level PressureIn, Mean Sea Level PressureIn, Min Sea Level PressureIn, Max VisibilityMiles, Mean VisibilityMiles, Min VisibilityMiles, Max Wind SpeedMPH, Mean Wind SpeedMPH, Max Gust SpeedMPH,PrecipitationIn, CloudCover, Events, WindDirDegrees
2012-12-1,75,54,32,39,30,25,80,49,19,30.23,30.18,30.13,10,10,10,13,1,16,0.00,0,,248
2012-12-2,75,54,33,37,31,25,75,46,24,30.24,30.17,30.12,10,10,10,17,2,26,0.00,0,,184
2012-12-3,71,53,35,32,27,21,75,38,15,30.20,30.14,30.10,10,10,10,22,5,26,0.00,0,,278
2012-12-4,64,52,39,34,27,19,70,43,26,30.37,30.31,30.20,10,10,10,16,4,21,0.00,0,,39
2012-12-5,68,48,28,34,29,21,86,53,26,30.37,30.24,30.11,10,10,10,13,2,,0.00,0,,186
2012-12-6,73,52,30,34,25,19,75,43,16,30.11,30.03,29.96,10,10,10,16,2,24,0.00,0,,253
2012-12-7,71,52,33,27,21,16,56,35,16,30.02,29.97,29.93,10,10,10,25,3,29,0.00,0,,274
2012-12-8,66,50,33,28,21,16,52,36,19,30.05,29.99,29.94,10,10,10,18,4,25,0.00,0,,245
2012-12-9,66,50,33,34,24,18,70,41,22,30.09,29.99,29.93,10,10,10,26,4,33,0.00,0,,272
2012-12-10,48,36,23,30,14,3,75,45,24,30.15,30.08,30.00,10,10,10,29,14,33,0.00,0,,325
2012-12-11,53,34,15,10,5,0,63,35,15,30.17,30.07,30.00,10,10,10,18,2,23,0.00,0,,285
2012-12-12,62,38,14,21,9,-2,53,36,17,30.22,30.16,30.11,10,10,9,18,3,22,0.00,0,,177
2012-12-13,64,45,26,25,18,10,59,39,22,30.19,30.13,30.06,10,10,10,16,2,21,0.00,1,,168
2012-12-14,68,56,44,43,33,23,66,50,26,30.10,29.97,29.84,10,10,7,33,8,39,0.00,3,,201
2012-12-15,62,45,28,28,21,10,80,41,14,30.08,30.01,29.96,10,10,10,18,2,26,0.00,0,,215
2012-12-16,57,45,33,30,25,18,70,45,26,30.10,29.99,29.94,10,10,10,26,8,32,0.00,0,,271
2012-12-17,60,42,24,30,23,12,93,51,20,30.14,30.09,30.03,10,10,10,23,7,26,0.00,0,,263
2012-12-18,73,48,24,21,13,3,55,29,11,30.06,29.96,29.88,10,10,10,18,3,23,0.00,0,,228
2012-12-19,66,48,30,28,13,7,46,26,11,30.21,29.91,29.81,10,10,4,31,9,37,0.00,2,,252
2012-12-20,51,33,15,10,3,-6,58,32,12,30.46,30.38,30.23,10,10,10,14,5,26,0.00,0,,16
2012-12-21,57,39,21,7,-1,-9,36,22,11,30.43,30.33,30.24,10,10,10,13,1,17,0.00,1,,155
2012-12-22,62,44,26,16,7,-6,29,22,14,30.26,30.20,30.12,10,10,10,12,1,,0.00,1,,163
2012-12-23,64,47,30,36,23,10,70,41,27,30.19,30.13,30.07,10,10,4,22,2,25,0.00,1,,261
2012-12-24,69,46,24,30,16,9,74,41,11,30.11,29.96,29.79,10,10,10,21,2,26,0.00,0,,255
2012-12-25,51,40,28,28,18,7,61,41,26,30.13,29.96,29.77,10,10,6,31,16,39,0.00,0,,322
2012-12-26,50,34,19,18,13,9,63,45,27,30.14,30.04,29.93,10,10,10,10,2,26,0.00,0,,160
2012-12-27,62,40,19,19,11,5,63,36,12,29.93,29.83,29.74,10,10,10,18,3,28,0.00,0,,254
2012-12-28,48,34,21,25,14,3,69,42,22,30.18,30.04,29.87,10,10,10,20,10,26,0.00,0,,294
2012-12-29,48,34,19,16,10,3,58,40,23,30.33,30.24,30.18,10,10,10,18,2,26,0.00,0,,120
2012-12-30,46,35,24,36,22,9,87,57,39,30.22,30.09,29.98,10,10,10,23,3,30,0.03,3,,149
2012-12-31,53,40,28,34,28,21,100,62,28,30.11,30.01,29.95,10,10,10,16,3,21,0.00,0,,285